createdAt,value
2018-06-21T00:00:46.036Z,16.20
2018-06-21T00:03:14.471Z,16.20
2018-06-21T00:05:42.873Z,16.10
2018-06-21T00:08:11.296Z,16.10
2018-06-21T00:10:39.680Z,16.10
2018-06-21T00:13:08.096Z,15.90
2018-06-21T00:15:36.488Z,15.80
2018-06-21T00:18:05.179Z,15.70
2018-06-21T00:20:33.600Z,15.60
2018-06-21T00:23:01.991Z,15.60
2018-06-21T00:25:30.394Z,15.60
2018-06-21T00:27:58.779Z,15.60
2018-06-21T00:30:27.184Z,15.60
2018-06-21T00:32:55.588Z,15.60
2018-06-21T00:35:24.155Z,15.70
2018-06-21T00:37:52.555Z,15.70
2018-06-21T00:40:20.955Z,15.60
2018-06-21T00:42:49.328Z,15.40
2018-06-21T00:45:17.731Z,15.30
2018-06-21T00:47:46.103Z,15.30
2018-06-21T00:50:14.530Z,15.40
2018-06-21T00:52:42.911Z,15.60
2018-06-21T00:55:11.309Z,15.60
2018-06-21T00:57:39.719Z,15.50
2018-06-21T01:00:08.133Z,15.40
2018-06-21T01:02:36.517Z,15.40
2018-06-21T01:05:05.188Z,15.40
2018-06-21T01:07:33.572Z,15.40
2018-06-21T01:10:01.958Z,15.50
2018-06-21T01:12:30.359Z,15.50
2018-06-21T01:14:58.751Z,15.60
2018-06-21T01:17:27.159Z,15.60
2018-06-21T01:19:55.556Z,15.60
2018-06-21T01:22:24.093Z,15.60
2018-06-21T01:24:52.481Z,15.50
2018-06-21T01:27:20.879Z,15.40
2018-06-21T01:29:49.275Z,15.30
2018-06-21T01:32:17.670Z,15.30
2018-06-21T01:34:46.055Z,15.30
2018-06-21T01:37:14.476Z,15.10
2018-06-21T01:39:42.868Z,15.00
2018-06-21T01:42:11.369Z,15.00
2018-06-21T01:44:39.768Z,15.00
2018-06-21T01:47:08.176Z,14.90
2018-06-21T01:49:36.575Z,14.80
2018-06-21T01:52:04.987Z,14.80
2018-06-21T01:54:33.365Z,14.80
2018-06-21T01:57:01.776Z,14.90
2018-06-21T01:59:30.165Z,14.90
2018-06-21T02:01:58.850Z,14.90
2018-06-21T02:04:27.288Z,14.80
2018-06-21T02:06:55.696Z,14.80
2018-06-21T02:09:24.293Z,14.70
2018-06-21T02:11:52.700Z,14.70
2018-06-21T02:14:21.127Z,14.80
2018-06-21T02:16:49.527Z,14.80
2018-06-21T02:19:17.948Z,14.90
2018-06-21T02:21:46.347Z,14.80
2018-06-21T02:24:14.759Z,14.70
2018-06-21T02:26:43.154Z,14.70
2018-06-21T02:29:11.577Z,14.70
2018-06-21T02:31:39.985Z,14.80
2018-06-21T02:34:08.708Z,14.90
2018-06-21T02:39:07.525Z,14.80
2018-06-21T02:41:35.943Z,14.80
2018-06-21T02:44:04.388Z,14.80
2018-06-21T02:46:32.788Z,14.80
2018-06-21T02:49:01.256Z,14.80
2018-06-21T02:51:29.655Z,14.80
2018-06-21T02:53:58.091Z,14.80
2018-06-21T02:56:26.509Z,14.90
2018-06-21T02:58:54.920Z,15.00
2018-06-21T03:01:23.347Z,15.10
2018-06-21T03:03:51.794Z,15.10
2018-06-21T03:06:20.196Z,15.10
2018-06-21T03:08:48.583Z,15.10
2018-06-21T03:11:16.995Z,15.20
2018-06-21T03:13:45.388Z,15.20
2018-06-21T03:16:13.809Z,15.30
2018-06-21T03:18:42.187Z,15.40
2018-06-21T03:21:10.600Z,15.40
2018-06-21T03:23:38.977Z,15.30
2018-06-21T03:26:07.403Z,15.20
2018-06-21T03:28:35.788Z,15.10
2018-06-21T03:31:04.211Z,15.00
2018-06-21T03:33:32.600Z,15.00
2018-06-21T03:36:00.999Z,15.00
2018-06-21T03:38:29.399Z,15.00
2018-06-21T03:40:57.823Z,15.00
2018-06-21T03:43:26.210Z,15.20
2018-06-21T03:45:54.635Z,15.40
2018-06-21T03:48:23.036Z,15.60
2018-06-21T03:50:51.489Z,15.80
2018-06-21T03:53:19.930Z,16.00
2018-06-21T03:55:48.411Z,16.20
2018-06-21T03:58:16.823Z,16.40
2018-06-21T04:00:45.225Z,16.50
2018-06-21T04:03:13.656Z,16.50
2018-06-21T04:05:42.081Z,16.40
2018-06-21T04:08:10.493Z,16.40
2018-06-21T04:13:07.251Z,16.70
2018-06-21T04:15:35.648Z,17.00
2018-06-21T04:18:04.343Z,17.20
2018-06-21T04:20:32.760Z,17.60
2018-06-21T04:23:01.181Z,17.80
2018-06-21T04:25:29.676Z,18.10
2018-06-21T04:27:58.099Z,18.30
2018-06-21T04:30:26.507Z,18.50
2018-06-21T04:32:54.915Z,18.60
2018-06-21T04:35:23.330Z,18.60
2018-06-21T04:37:51.775Z,18.40
2018-06-21T04:40:20.175Z,18.30
2018-06-21T04:42:48.585Z,18.00
2018-06-21T04:45:17.005Z,17.90
2018-06-21T04:47:45.409Z,17.90
2018-06-21T04:50:13.829Z,17.90
2018-06-21T04:52:42.289Z,18.00
2018-06-21T04:55:10.669Z,18.40
2018-06-21T04:57:39.071Z,18.70
2018-06-21T05:00:07.575Z,18.90
2018-06-21T05:02:35.927Z,19.00
2018-06-21T05:05:04.421Z,19.30
2018-06-21T05:07:32.821Z,20.00
2018-06-21T05:10:01.240Z,20.70
2018-06-21T05:12:29.641Z,21.50
2018-06-21T05:14:58.064Z,22.40
2018-06-21T05:17:26.460Z,23.30
2018-06-21T05:19:54.896Z,24.20
2018-06-21T05:22:23.296Z,25.10
2018-06-21T05:24:51.698Z,25.90
2018-06-21T05:27:20.112Z,26.80
2018-06-21T05:29:48.504Z,27.70
2018-06-21T05:32:16.923Z,28.60
2018-06-21T05:34:45.321Z,29.40
2018-06-21T05:37:13.741Z,30.30
2018-06-21T05:39:42.140Z,31.10
2018-06-21T05:42:10.555Z,31.50
2018-06-21T05:44:38.951Z,31.80
2018-06-21T05:47:07.367Z,32.10
2018-06-21T05:49:35.775Z,32.30
2018-06-21T05:52:04.195Z,32.50
2018-06-21T05:54:32.592Z,32.50
2018-06-21T05:57:01.008Z,32.80
2018-06-21T05:59:29.418Z,33.00
2018-06-21T06:01:57.875Z,33.30
2018-06-21T06:04:26.280Z,33.70
2018-06-21T06:06:54.762Z,33.90
2018-06-21T06:09:23.216Z,33.90
2018-06-21T06:11:51.628Z,33.60
2018-06-21T06:14:20.034Z,33.30
2018-06-21T06:16:48.472Z,33.10
2018-06-21T06:19:16.860Z,32.50
2018-06-21T06:21:45.904Z,32.20
2018-06-21T06:24:14.476Z,32.40
2018-06-21T06:26:42.924Z,32.60
2018-06-21T06:29:11.394Z,32.10
2018-06-21T06:31:40.555Z,32.00
2018-06-21T06:34:10.840Z,32.20
2018-06-21T06:36:42.994Z,31.90
2018-06-21T06:39:18.262Z,31.60
2018-06-21T06:41:49.775Z,31.10
2018-06-21T06:44:18.720Z,30.90
2018-06-21T06:46:47.181Z,30.90
2018-06-21T06:49:15.991Z,31.00
2018-06-21T06:51:44.572Z,30.90
2018-06-21T06:54:14.014Z,31.10
2018-06-21T06:56:42.595Z,30.70
2018-06-21T06:59:11.151Z,30.50
2018-06-21T07:01:39.567Z,30.80
2018-06-21T07:04:08.857Z,30.90
2018-06-21T07:06:37.325Z,30.10
2018-06-21T07:09:09.115Z,29.90
2018-06-21T07:11:48.012Z,29.20
2018-06-21T07:14:39.929Z,28.90
2018-06-21T07:20:15.261Z,28.90
2018-06-21T07:22:48.239Z,29.40
2018-06-21T07:25:16.860Z,29.50
2018-06-21T07:27:46.580Z,29.80
2018-06-21T07:30:15.102Z,30.10
2018-06-21T07:32:43.598Z,29.80
2018-06-21T07:35:12.298Z,29.60
2018-06-21T07:37:40.746Z,29.30
2018-06-21T07:40:09.183Z,29.00
2018-06-21T07:42:37.582Z,29.10
2018-06-21T07:45:06.060Z,29.20
2018-06-21T07:47:34.997Z,29.00
2018-06-21T07:50:03.834Z,29.10
2018-06-21T07:52:32.307Z,28.90
2018-06-21T07:55:00.760Z,28.90
2018-06-21T07:57:29.329Z,29.00
2018-06-21T07:59:57.828Z,28.70
2018-06-21T08:02:26.307Z,28.80
2018-06-21T08:04:54.765Z,28.50
2018-06-21T08:07:23.219Z,28.00
2018-06-21T08:09:51.680Z,28.00
2018-06-21T08:12:20.112Z,28.20
2018-06-21T08:14:48.567Z,28.00
2018-06-21T08:17:17.064Z,27.70
2018-06-21T08:19:45.468Z,27.50
2018-06-21T08:22:13.919Z,27.90
2018-06-21T08:24:42.353Z,28.30
2018-06-21T08:27:11.157Z,28.40
2018-06-21T08:29:41.902Z,28.80
2018-06-21T08:32:13.446Z,28.80
2018-06-21T08:34:43.605Z,28.70
2018-06-21T08:37:12.242Z,28.40
2018-06-21T08:39:40.795Z,28.50
2018-06-21T08:42:09.324Z,28.40
2018-06-21T08:44:37.957Z,28.50
2018-06-21T08:47:07.697Z,28.20
2018-06-21T08:49:36.204Z,28.10
2018-06-21T08:52:04.696Z,28.60
2018-06-21T08:54:33.198Z,28.80
2018-06-21T08:57:01.877Z,28.60
2018-06-21T08:59:30.349Z,28.50
2018-06-21T09:01:58.861Z,28.40
2018-06-21T09:04:27.514Z,28.60
2018-06-21T09:06:56.383Z,28.40
2018-06-21T09:09:25.196Z,28.20
2018-06-21T09:11:54.076Z,28.00
2018-06-21T09:14:22.775Z,27.70
2018-06-21T09:16:51.748Z,27.40
2018-06-21T09:19:20.461Z,27.40
2018-06-21T09:21:49.739Z,27.40
2018-06-21T09:24:18.356Z,27.40
2018-06-21T09:26:46.834Z,27.50
2018-06-21T09:29:15.351Z,27.50
2018-06-21T09:31:43.737Z,27.60
2018-06-21T09:34:12.164Z,27.50
2018-06-21T09:36:42.576Z,27.50
2018-06-21T09:39:17.092Z,27.50
2018-06-21T09:41:51.217Z,27.70
2018-06-21T09:44:24.967Z,27.80
2018-06-21T09:46:58.685Z,27.60
2018-06-21T09:49:34.069Z,27.60
2018-06-21T09:52:03.849Z,27.70
2018-06-21T09:57:00.768Z,27.50
2018-06-21T09:59:30.027Z,27.70
2018-06-21T10:01:58.422Z,27.90
2018-06-21T10:04:26.937Z,27.80
2018-06-21T10:06:55.356Z,27.80
2018-06-21T10:09:23.778Z,27.70
2018-06-21T10:11:52.203Z,27.50
2018-06-21T10:14:20.984Z,27.40
2018-06-21T10:16:49.400Z,27.10
2018-06-21T10:19:17.847Z,27.10
2018-06-21T10:21:46.251Z,27.20
2018-06-21T10:24:14.651Z,27.40
2018-06-21T10:26:43.088Z,27.60
2018-06-21T10:29:11.496Z,28.10
2018-06-21T10:31:39.924Z,27.90
2018-06-21T10:34:08.361Z,27.90
2018-06-21T10:36:36.796Z,28.10
2018-06-21T10:39:08.039Z,27.50
2018-06-21T10:41:36.468Z,27.40
2018-06-21T10:44:04.863Z,27.80
2018-06-21T10:46:33.922Z,28.30
2018-06-21T10:49:05.115Z,28.60
2018-06-21T10:51:33.563Z,28.70
2018-06-21T10:54:02.193Z,28.40
2018-06-21T10:56:30.700Z,28.40
2018-06-21T10:58:59.104Z,28.10
2018-06-21T11:01:27.567Z,27.40
2018-06-21T11:03:55.983Z,26.60
2018-06-21T11:06:24.832Z,26.00
2018-06-21T11:08:53.230Z,25.70
2018-06-21T11:11:21.819Z,25.20
2018-06-21T11:13:50.475Z,24.50
2018-06-21T11:16:18.884Z,24.10
2018-06-21T11:18:47.312Z,23.70
2018-06-21T11:21:15.708Z,23.60
2018-06-21T11:23:44.129Z,23.60
2018-06-21T11:26:13.702Z,23.80
2018-06-21T11:28:42.535Z,24.10
2018-06-21T11:31:10.976Z,24.50
2018-06-21T11:33:39.406Z,24.60
2018-06-21T11:36:07.802Z,24.50
2018-06-21T11:38:36.224Z,24.30
2018-06-21T11:41:04.620Z,23.90
2018-06-21T11:43:33.032Z,23.20
2018-06-21T11:46:01.442Z,22.90
2018-06-21T11:48:29.856Z,22.70
2018-06-21T11:50:58.245Z,22.70
2018-06-21T11:53:26.661Z,22.90
2018-06-21T11:55:55.060Z,23.10
2018-06-21T11:58:23.448Z,23.00
2018-06-21T12:00:56.508Z,22.50
2018-06-21T12:03:24.928Z,22.30
2018-06-21T12:05:54.859Z,22.20
2018-06-21T12:08:23.260Z,22.10
2018-06-21T12:10:51.688Z,22.10
2018-06-21T12:13:20.299Z,21.70
2018-06-21T12:15:48.711Z,21.50
2018-06-21T12:18:17.148Z,21.50
2018-06-21T12:20:45.605Z,21.40
2018-06-21T12:23:14.000Z,21.20
2018-06-21T12:25:42.419Z,21.10
2018-06-21T12:28:10.846Z,21.10
2018-06-21T12:30:39.267Z,20.90
2018-06-21T12:33:07.663Z,20.80
2018-06-21T12:35:36.075Z,20.60
2018-06-21T12:38:04.544Z,20.50
2018-06-21T12:40:32.943Z,20.50
2018-06-21T12:43:01.344Z,20.40
2018-06-21T12:45:29.757Z,20.30
2018-06-21T12:47:58.164Z,20.50
2018-06-21T12:50:26.586Z,20.70
2018-06-21T12:52:54.975Z,20.60
2018-06-21T12:55:23.406Z,20.70
2018-06-21T12:57:54.737Z,21.30
2018-06-21T13:00:23.170Z,22.30
2018-06-21T13:02:51.816Z,23.10
2018-06-21T13:05:20.255Z,23.50
2018-06-21T13:07:48.692Z,24.10
2018-06-21T13:10:28.589Z,24.60
2018-06-21T13:13:08.588Z,24.90
2018-06-21T13:15:37.001Z,25.00
2018-06-21T13:18:05.487Z,24.90
2018-06-21T13:20:33.900Z,24.50
2018-06-21T13:23:02.384Z,23.90
2018-06-21T13:25:30.885Z,24.00
2018-06-21T13:28:01.421Z,23.90
2018-06-21T13:30:29.855Z,23.90
2018-06-21T13:32:58.280Z,23.90
2018-06-21T13:35:26.799Z,24.00
2018-06-21T13:37:55.223Z,24.00
2018-06-21T13:40:23.635Z,24.20
2018-06-21T13:42:52.096Z,24.50
2018-06-21T13:45:20.535Z,24.50
2018-06-21T13:47:49.262Z,24.70
2018-06-21T13:50:17.653Z,25.10
2018-06-21T13:52:46.085Z,25.10
2018-06-21T13:55:14.498Z,24.80
2018-06-21T13:57:43.014Z,23.90
2018-06-21T14:00:11.444Z,23.60
2018-06-21T14:02:39.849Z,23.80
2018-06-21T14:05:08.723Z,23.80
2018-06-21T14:07:37.779Z,23.90
2018-06-21T14:10:06.184Z,23.80
2018-06-21T14:12:34.598Z,24.00
2018-06-21T14:15:17.111Z,24.20
2018-06-21T14:17:45.500Z,24.60
2018-06-21T14:20:13.919Z,25.00
2018-06-21T14:22:42.328Z,25.10
2018-06-21T14:25:10.790Z,25.10
2018-06-21T14:27:39.189Z,25.00
2018-06-21T14:30:07.696Z,24.90
2018-06-21T14:32:36.052Z,24.90
2018-06-21T14:35:04.523Z,24.70
2018-06-21T14:37:32.917Z,24.70
2018-06-21T14:40:01.352Z,24.50
2018-06-21T14:42:29.837Z,24.60
2018-06-21T14:44:58.849Z,24.50
2018-06-21T14:47:28.241Z,24.40
2018-06-21T14:50:03.345Z,24.20
2018-06-21T14:52:31.819Z,24.20
2018-06-21T14:55:00.213Z,24.30
2018-06-21T14:59:56.873Z,24.50
2018-06-21T15:02:25.316Z,24.50
2018-06-21T15:04:55.759Z,24.10
2018-06-21T15:07:24.155Z,24.10
2018-06-21T15:09:52.599Z,24.30
2018-06-21T15:12:21.064Z,24.20
2018-06-21T15:14:49.464Z,24.00
2018-06-21T15:17:18.694Z,24.00
2018-06-21T15:19:47.084Z,24.10
2018-06-21T15:22:15.499Z,24.00
2018-06-21T15:24:43.944Z,24.00
2018-06-21T15:27:12.356Z,24.00
2018-06-21T15:29:42.021Z,23.90
2018-06-21T15:32:11.255Z,23.70
2018-06-21T15:34:40.576Z,23.60
2018-06-21T15:37:09.271Z,23.50
2018-06-21T15:39:40.319Z,23.50
2018-06-21T15:42:09.146Z,23.60
2018-06-21T15:44:38.416Z,23.60
2018-06-21T15:47:07.206Z,23.60
2018-06-21T15:49:35.769Z,23.20
2018-06-21T15:52:04.480Z,23.00
2018-06-21T15:54:33.410Z,22.90
2018-06-21T15:57:01.853Z,22.90
2018-06-21T15:59:30.984Z,23.10
2018-06-21T16:04:27.940Z,23.10
2018-06-21T16:06:56.332Z,23.00
2018-06-21T16:09:24.880Z,22.80
2018-06-21T16:11:53.299Z,22.70
2018-06-21T16:14:21.742Z,22.60
2018-06-21T16:16:50.244Z,22.60
2018-06-21T16:19:19.656Z,22.50
2018-06-21T16:21:48.215Z,22.40
2018-06-21T16:24:17.040Z,22.30
2018-06-21T16:26:45.447Z,22.20
2018-06-21T16:29:13.860Z,22.10
2018-06-21T16:31:42.272Z,22.10
2018-06-21T16:34:10.667Z,22.00
2018-06-21T16:36:39.090Z,22.00
2018-06-21T16:39:09.007Z,22.00
2018-06-21T16:41:37.440Z,21.90
2018-06-21T16:44:05.976Z,21.70
2018-06-21T16:46:34.415Z,21.60
2018-06-21T16:49:02.892Z,21.40
2018-06-21T16:51:31.324Z,21.30
2018-06-21T16:54:00.222Z,21.30
2018-06-21T16:56:29.384Z,21.30
2018-06-21T16:58:58.191Z,21.30
2018-06-21T17:01:26.630Z,21.40
2018-06-21T17:03:56.398Z,21.30
2018-06-21T17:06:25.686Z,21.10
2018-06-21T17:08:55.043Z,21.00
2018-06-21T17:11:24.267Z,20.90
2018-06-21T17:13:52.716Z,20.80
2018-06-21T17:16:21.139Z,20.70
2018-06-21T17:18:50.232Z,20.60
2018-06-21T17:23:50.202Z,20.40
2018-06-21T17:26:18.916Z,20.30
2018-06-21T17:28:48.894Z,20.30
2018-06-21T17:31:17.778Z,20.30
2018-06-21T17:33:48.563Z,20.40
2018-06-21T17:36:18.367Z,20.30
2018-06-21T17:38:48.112Z,20.20
2018-06-21T17:41:17.650Z,20.10
2018-06-21T17:43:50.793Z,20.10
2018-06-21T17:46:20.251Z,20.00
2018-06-21T17:48:48.688Z,20.00
2018-06-21T17:51:17.128Z,19.90
2018-06-21T17:53:46.038Z,19.80
2018-06-21T17:56:14.452Z,19.70
2018-06-21T17:58:43.600Z,19.60
2018-06-21T18:01:12.000Z,19.50
2018-06-21T18:03:41.632Z,19.40
2018-06-21T18:06:11.376Z,19.30
2018-06-21T18:08:39.825Z,19.20
2018-06-21T18:11:08.308Z,19.20
2018-06-21T18:13:36.727Z,19.10
2018-06-21T18:16:05.156Z,19.00
2018-06-21T18:18:33.580Z,18.90
2018-06-21T18:21:01.976Z,18.80
2018-06-21T18:23:30.817Z,18.70
2018-06-21T18:25:59.800Z,18.70
2018-06-21T18:28:28.487Z,18.60
2018-06-21T18:30:57.332Z,18.50
2018-06-21T18:33:26.430Z,18.40
2018-06-21T18:35:54.886Z,18.30
2018-06-21T18:38:23.299Z,18.20
2018-06-21T18:40:51.762Z,18.10
2018-06-21T18:43:20.198Z,18.00
2018-06-21T18:45:50.231Z,17.90
2018-06-21T18:48:19.312Z,17.80
2018-06-21T18:50:47.752Z,17.60
2018-06-21T18:53:16.780Z,17.50
2018-06-21T18:55:45.440Z,17.50
2018-06-21T18:58:13.869Z,17.50
2018-06-21T19:00:43.196Z,17.40
2018-06-21T19:03:11.653Z,17.30
2018-06-21T19:05:40.892Z,17.20
2018-06-21T19:08:14.511Z,17.10
2018-06-21T19:10:48.559Z,17.00
2018-06-21T19:13:17.528Z,16.90
2018-06-21T19:15:46.400Z,16.80
2018-06-21T19:18:14.805Z,16.70
2018-06-21T19:20:43.644Z,16.60
2018-06-21T19:23:12.064Z,16.50
2018-06-21T19:25:40.506Z,16.40
2018-06-21T19:28:08.916Z,16.30
2018-06-21T19:30:37.311Z,16.30
2018-06-21T19:33:05.731Z,16.20
2018-06-21T19:35:34.138Z,16.10
2018-06-21T19:38:02.572Z,16.10
2018-06-21T19:40:31.002Z,16.00
2018-06-21T19:42:59.419Z,16.00
2018-06-21T19:45:27.845Z,15.90
2018-06-21T19:47:56.305Z,15.80
2018-06-21T19:50:24.700Z,15.80
2018-06-21T19:52:53.115Z,15.70
2018-06-21T19:55:21.532Z,15.60
2018-06-21T19:57:50.038Z,15.50
2018-06-21T20:00:18.419Z,15.40
2018-06-21T20:02:52.241Z,15.30
2018-06-21T20:05:20.692Z,15.30
2018-06-21T20:07:49.204Z,15.20
2018-06-21T20:10:17.629Z,15.20
2018-06-21T20:12:46.104Z,15.10
2018-06-21T20:15:14.527Z,15.10
2018-06-21T20:20:29.424Z,15.00
2018-06-21T20:22:57.828Z,15.00
2018-06-21T20:25:26.268Z,14.90
2018-06-21T20:27:54.684Z,14.90
2018-06-21T20:30:23.148Z,14.80
2018-06-21T20:32:51.630Z,14.70
2018-06-21T20:35:26.652Z,14.60
2018-06-21T20:37:55.044Z,14.60
2018-06-21T20:40:24.296Z,14.50
2018-06-21T20:42:52.691Z,14.50
2018-06-21T20:45:21.117Z,14.40
2018-06-21T20:47:49.545Z,14.40
2018-06-21T20:50:17.980Z,14.30
2018-06-21T20:55:14.516Z,14.30
2018-06-21T20:57:42.911Z,14.20
2018-06-21T21:00:11.332Z,14.20
2018-06-21T21:02:39.736Z,14.10
2018-06-21T21:05:15.253Z,14.10
2018-06-21T21:07:44.615Z,14.00
2018-06-21T21:10:15.413Z,14.00
2018-06-21T21:12:43.818Z,14.00
2018-06-21T21:15:13.155Z,13.90
2018-06-21T21:17:41.845Z,13.80
2018-06-21T21:20:12.091Z,13.80
2018-06-21T21:22:41.144Z,13.70
2018-06-21T21:25:09.585Z,13.70
2018-06-21T21:27:38.005Z,13.60
2018-06-21T21:30:07.653Z,13.50
2018-06-21T21:32:36.078Z,13.40
2018-06-21T21:35:04.576Z,13.40
2018-06-21T21:37:33.023Z,13.30
2018-06-21T21:40:03.611Z,13.30
2018-06-21T21:42:33.133Z,13.20
2018-06-21T21:45:01.542Z,13.20
2018-06-21T21:47:29.959Z,13.20
2018-06-21T21:49:58.396Z,13.20
2018-06-21T21:52:26.844Z,13.10
2018-06-21T21:54:55.236Z,13.10
2018-06-21T21:57:23.656Z,13.10
2018-06-21T21:59:52.052Z,13.00
2018-06-21T22:02:20.492Z,12.80
2018-06-21T22:04:48.907Z,12.40
2018-06-21T22:07:17.340Z,12.20
2018-06-21T22:09:46.016Z,12.00
2018-06-21T22:12:14.459Z,11.90
2018-06-21T22:14:42.851Z,11.70
2018-06-21T22:17:11.250Z,11.50
2018-06-21T22:19:39.732Z,11.40
2018-06-21T22:22:08.127Z,11.30
2018-06-21T22:24:36.564Z,11.30
2018-06-21T22:27:04.964Z,11.20
2018-06-21T22:29:33.392Z,11.20
2018-06-21T22:32:01.785Z,11.30
2018-06-21T22:34:30.204Z,11.40
2018-06-21T22:36:58.609Z,11.60
2018-06-21T22:39:27.033Z,11.60
2018-06-21T22:41:55.440Z,11.80
2018-06-21T22:44:23.865Z,11.80
2018-06-21T22:46:52.256Z,11.90
2018-06-21T22:49:20.687Z,12.00
2018-06-21T22:51:49.092Z,12.00
2018-06-21T22:54:17.521Z,12.00
2018-06-21T22:56:45.919Z,11.90
2018-06-21T22:59:14.327Z,11.90
2018-06-21T23:01:42.733Z,11.80
2018-06-21T23:04:11.226Z,11.90
2018-06-21T23:06:39.628Z,11.90
2018-06-21T23:09:08.053Z,11.90
2018-06-21T23:11:36.453Z,11.90
2018-06-21T23:14:04.864Z,11.90
2018-06-21T23:16:33.288Z,11.90
2018-06-21T23:19:13.136Z,11.90
2018-06-21T23:21:41.562Z,11.90
2018-06-21T23:24:09.959Z,11.80
2018-06-21T23:26:38.378Z,11.80
2018-06-21T23:29:06.948Z,11.80
2018-06-21T23:31:36.228Z,11.70
2018-06-21T23:34:04.628Z,11.60
2018-06-21T23:36:33.052Z,11.60
2018-06-21T23:39:01.441Z,11.50
2018-06-21T23:43:57.987Z,11.40
2018-06-21T23:46:26.404Z,11.30
2018-06-21T23:48:54.798Z,11.20
2018-06-21T23:51:23.212Z,11.20
2018-06-21T23:53:51.741Z,11.10
2018-06-21T23:56:20.171Z,10.90
2018-06-21T23:58:48.574Z,10.70
